createdAt,value
2017-10-01T00:02:25.765Z,11.12
2017-10-01T00:04:54.774Z,9.95
2017-10-01T00:07:23.749Z,14.00
2017-10-01T00:09:52.747Z,14.77
2017-10-01T00:12:21.784Z,15.18
2017-10-01T00:14:51.114Z,12.93
2017-10-01T00:17:20.861Z,14.60
2017-10-01T00:19:50.685Z,13.93
2017-10-01T00:22:19.706Z,14.50
2017-10-01T00:24:49.551Z,12.45
2017-10-01T00:27:19.303Z,16.35
2017-10-01T00:29:48.322Z,15.25
2017-10-01T00:32:17.328Z,19.58
2017-10-01T00:34:47.066Z,19.42
2017-10-01T00:38:18.272Z,16.55
2017-10-01T00:40:47.350Z,20.08
2017-10-01T00:43:16.333Z,15.93
2017-10-01T00:45:45.298Z,16.00
2017-10-01T00:48:14.249Z,17.33
2017-10-01T00:50:43.324Z,17.85
2017-10-01T00:53:12.431Z,17.37
2017-10-01T00:55:42.342Z,19.62
2017-10-01T00:58:11.414Z,16.05
2017-10-01T01:00:40.509Z,15.57
2017-10-01T01:03:10.206Z,18.98
2017-10-01T01:05:39.190Z,18.87
2017-10-01T01:08:08.230Z,19.58
2017-10-01T01:10:37.374Z,20.48
2017-10-01T01:13:06.409Z,22.83
2017-10-01T01:15:36.172Z,21.15
2017-10-01T01:18:05.908Z,22.48
2017-10-01T01:20:34.953Z,21.12
2017-10-01T01:23:04.845Z,16.98
2017-10-01T01:25:33.969Z,21.10
2017-10-01T01:28:03.809Z,17.15
2017-10-01T01:30:32.921Z,21.37
2017-10-01T01:33:02.082Z,21.48
2017-10-01T01:35:31.904Z,20.95
2017-10-01T01:38:00.994Z,20.52
2017-10-01T01:40:30.098Z,19.77
2017-10-01T01:42:59.223Z,19.92
2017-10-01T01:45:28.252Z,21.23
2017-10-01T01:47:57.476Z,22.35
2017-10-01T01:50:27.338Z,20.95
2017-10-01T01:52:56.453Z,18.17
2017-10-01T01:55:25.663Z,17.60
2017-10-01T01:57:54.748Z,18.52
2017-10-01T02:00:23.869Z,16.70
2017-10-01T02:02:53.708Z,16.98
2017-10-01T02:05:22.802Z,18.50
2017-10-01T02:07:52.784Z,18.75
2017-10-01T02:10:22.619Z,18.83
2017-10-01T02:12:51.775Z,21.73
2017-10-01T02:15:20.981Z,21.40
2017-10-01T02:17:50.045Z,29.37
2017-10-01T02:20:19.064Z,19.33
2017-10-01T02:22:48.069Z,19.42
2017-10-01T02:25:17.825Z,20.58
2017-10-01T02:27:46.845Z,16.08
2017-10-01T02:30:16.002Z,18.48
2017-10-01T02:32:45.067Z,18.83
2017-10-01T02:35:14.827Z,19.20
2017-10-01T02:37:44.049Z,20.90
2017-10-01T02:40:13.885Z,20.00
2017-10-01T02:42:43.760Z,24.15
2017-10-01T02:45:12.877Z,24.37
2017-10-01T02:47:41.877Z,24.27
2017-10-01T02:50:12.926Z,27.48
2017-10-01T02:52:49.173Z,22.05
2017-10-01T02:55:18.218Z,17.98
2017-10-01T02:57:47.302Z,21.73
2017-10-01T03:00:16.408Z,24.15
2017-10-01T03:02:45.462Z,21.20
2017-10-01T03:05:14.434Z,20.85
2017-10-01T03:07:43.513Z,22.05
2017-10-01T03:10:12.549Z,24.20
2017-10-01T03:12:41.578Z,26.58
2017-10-01T03:15:10.675Z,22.35
2017-10-01T03:17:39.741Z,24.48
2017-10-01T03:20:09.757Z,26.85
2017-10-01T03:22:39.682Z,24.37
2017-10-01T03:25:09.468Z,21.95
2017-10-01T03:27:38.489Z,22.55
2017-10-01T03:30:08.753Z,22.05
2017-10-01T03:32:37.791Z,25.83
2017-10-01T03:35:07.660Z,23.87
2017-10-01T03:37:37.504Z,24.98
2017-10-01T03:40:06.594Z,24.98
2017-10-01T03:42:35.680Z,25.27
2017-10-01T03:45:04.814Z,23.10
2017-10-01T03:47:34.706Z,29.42
2017-10-01T03:50:03.782Z,26.10
2017-10-01T03:52:32.826Z,22.42
2017-10-01T03:55:01.974Z,24.98
2017-10-01T03:57:36.021Z,25.60
2017-10-01T04:00:05.902Z,27.90
2017-10-01T04:02:34.877Z,30.92
2017-10-01T04:05:03.923Z,26.33
2017-10-01T04:07:33.658Z,28.83
2017-10-01T04:10:02.702Z,28.52
2017-10-01T04:12:31.738Z,30.02
2017-10-01T04:15:00.725Z,27.90
2017-10-01T04:17:29.672Z,26.45
2017-10-01T04:19:58.626Z,28.52
2017-10-01T04:22:27.738Z,32.88
2017-10-01T04:24:56.726Z,36.60
2017-10-01T04:27:25.717Z,31.92
2017-10-01T04:29:54.712Z,32.25
2017-10-01T04:32:23.672Z,35.53
2017-10-01T04:34:52.656Z,28.27
2017-10-01T04:37:22.429Z,31.73
2017-10-01T04:39:51.426Z,34.47
2017-10-01T04:42:20.422Z,34.33
2017-10-01T04:44:49.396Z,29.73
2017-10-01T04:47:18.407Z,30.20
2017-10-01T04:49:47.445Z,33.80
2017-10-01T04:52:16.396Z,32.03
2017-10-01T04:54:45.382Z,33.42
2017-10-01T04:57:14.357Z,28.27
2017-10-01T04:59:43.371Z,28.92
2017-10-01T05:02:12.357Z,31.98
2017-10-01T05:04:41.397Z,34.75
2017-10-01T05:07:10.376Z,32.92
2017-10-01T05:09:40.130Z,30.95
2017-10-01T05:12:09.136Z,38.03
2017-10-01T05:14:38.088Z,41.00
2017-10-01T05:17:07.122Z,32.65
2017-10-01T05:19:36.165Z,29.12
2017-10-01T05:22:05.985Z,34.67
2017-10-01T05:24:35.797Z,37.17
2017-10-01T05:27:05.538Z,31.58
2017-10-01T05:29:34.533Z,33.20
2017-10-01T05:32:03.533Z,38.90
2017-10-01T05:34:32.869Z,33.80
2017-10-01T05:37:02.672Z,32.22
2017-10-01T05:39:31.661Z,32.45
2017-10-01T05:42:00.709Z,34.85
2017-10-01T05:44:29.742Z,46.05
2017-10-01T05:46:58.704Z,38.47
2017-10-01T05:49:27.660Z,34.45
2017-10-01T05:51:57.413Z,34.58
2017-10-01T05:54:26.445Z,29.63
2017-10-01T05:56:55.544Z,26.40
2017-10-01T05:59:25.302Z,27.65
2017-10-01T06:01:54.360Z,26.15
2017-10-01T06:04:24.081Z,24.70
2017-10-01T06:06:53.893Z,25.88
2017-10-01T06:09:23.721Z,32.20
2017-10-01T06:11:52.728Z,25.95
2017-10-01T06:14:21.771Z,24.90
2017-10-01T06:16:51.552Z,27.95
2017-10-01T06:19:20.604Z,24.33
2017-10-01T06:21:49.656Z,19.08
2017-10-01T06:24:18.697Z,21.42
2017-10-01T06:26:48.359Z,20.55
2017-10-01T06:29:18.213Z,22.73
2017-10-01T06:31:47.273Z,29.95
2017-10-01T06:34:16.281Z,25.77
2017-10-01T06:36:46.060Z,23.67
2017-10-01T06:39:15.063Z,22.52
2017-10-01T06:41:44.118Z,21.67
2017-10-01T06:44:13.132Z,20.10
2017-10-01T06:46:42.131Z,19.67
2017-10-01T06:49:11.094Z,22.23
2017-10-01T06:51:40.054Z,17.15
2017-10-01T06:54:09.883Z,19.33
2017-10-01T06:56:38.933Z,20.08
2017-10-01T06:59:08.012Z,20.23
2017-10-01T07:01:37.037Z,23.55
2017-10-01T07:04:08.177Z,23.10
2017-10-01T07:06:42.871Z,18.25
2017-10-01T07:09:14.140Z,26.52
2017-10-01T07:11:43.634Z,19.75
2017-10-01T07:14:12.765Z,23.00
2017-10-01T07:16:43.082Z,17.25
2017-10-01T07:19:12.546Z,17.17
2017-10-01T07:21:41.601Z,19.52
2017-10-01T07:24:11.539Z,19.95
2017-10-01T07:26:40.520Z,23.77
2017-10-01T07:29:09.913Z,21.30
2017-10-01T07:31:38.873Z,16.35
2017-10-01T07:34:07.879Z,19.42
2017-10-01T07:36:37.637Z,17.52
2017-10-01T07:39:06.713Z,21.37
2017-10-01T07:41:35.805Z,17.02
2017-10-01T07:44:04.909Z,12.82
2017-10-01T07:46:34.037Z,22.77
2017-10-01T07:49:03.096Z,15.40
2017-10-01T07:51:32.076Z,16.83
2017-10-01T07:54:01.945Z,20.20
2017-10-01T07:56:31.024Z,19.25
2017-10-01T07:59:01.325Z,18.50
2017-10-01T08:01:30.361Z,16.75
2017-10-01T08:03:59.750Z,17.70
2017-10-01T08:06:28.798Z,15.85
2017-10-01T08:08:58.594Z,16.70
2017-10-01T08:11:28.382Z,20.62
2017-10-01T08:13:57.382Z,19.15
2017-10-01T08:16:26.417Z,18.33
2017-10-01T08:18:56.386Z,16.40
2017-10-01T08:21:25.456Z,18.80
2017-10-01T08:23:55.295Z,19.60
2017-10-01T08:26:24.360Z,20.20
2017-10-01T08:28:53.432Z,20.10
2017-10-01T08:31:22.678Z,15.60
2017-10-01T08:33:51.757Z,15.80
2017-10-01T08:36:21.611Z,15.23
2017-10-01T08:38:51.396Z,15.25
2017-10-01T08:41:20.388Z,18.17
2017-10-01T08:43:50.172Z,19.62
2017-10-01T08:46:19.638Z,16.25
2017-10-01T08:48:49.462Z,16.20
2017-10-01T08:51:18.507Z,14.13
2017-10-01T08:53:47.620Z,18.75
2017-10-01T08:56:17.475Z,15.43
2017-10-01T08:58:46.558Z,14.27
2017-10-01T09:01:16.424Z,18.80
2017-10-01T09:03:45.479Z,15.27
2017-10-01T09:06:15.319Z,15.07
2017-10-01T09:08:45.229Z,16.02
2017-10-01T09:11:14.407Z,13.73
2017-10-01T09:13:44.026Z,14.43
2017-10-01T09:16:13.398Z,16.17
2017-10-01T09:18:42.505Z,16.37
2017-10-01T09:21:11.527Z,13.23
2017-10-01T09:23:40.756Z,20.88
2017-10-01T09:26:09.849Z,15.50
2017-10-01T09:28:38.903Z,16.85
2017-10-01T09:31:07.954Z,16.35
2017-10-01T09:33:38.159Z,12.35
2017-10-01T09:36:07.338Z,13.57
2017-10-01T09:38:36.509Z,15.13
2017-10-01T09:41:05.583Z,15.15
2017-10-01T09:43:35.476Z,13.10
2017-10-01T09:46:05.490Z,12.90
2017-10-01T09:48:35.368Z,15.93
2017-10-01T09:51:04.488Z,14.43
2017-10-01T09:53:33.596Z,12.77
2017-10-01T09:56:03.461Z,13.25
2017-10-01T09:58:32.559Z,13.98
2017-10-01T10:01:03.454Z,14.27
2017-10-01T10:03:33.305Z,12.35
2017-10-01T10:06:02.350Z,12.00
2017-10-01T10:08:32.207Z,14.23
2017-10-01T10:11:01.220Z,17.83
2017-10-01T10:13:31.017Z,14.60
2017-10-01T10:16:00.091Z,10.23
2017-10-01T10:18:29.237Z,9.38
2017-10-01T10:20:59.162Z,10.30
2017-10-01T10:23:28.274Z,11.48
2017-10-01T10:25:58.197Z,14.45
2017-10-01T10:28:27.367Z,8.10
2017-10-01T10:30:56.591Z,10.60
2017-10-01T10:33:26.530Z,11.07
2017-10-01T10:35:56.613Z,9.45
2017-10-01T10:38:26.557Z,7.75
2017-10-01T10:40:56.423Z,11.27
2017-10-01T10:43:25.450Z,13.38
2017-10-01T10:45:55.372Z,12.93
2017-10-01T10:48:24.481Z,11.90
2017-10-01T10:50:54.435Z,9.73
2017-10-01T10:53:23.579Z,10.02
2017-10-01T10:55:52.745Z,7.87
2017-10-01T10:58:22.817Z,11.38
2017-10-01T11:00:51.869Z,10.40
2017-10-01T11:03:21.753Z,11.63
2017-10-01T11:05:50.917Z,8.00
2017-10-01T11:08:20.822Z,10.40
2017-10-01T11:10:50.640Z,7.12
2017-10-01T11:13:21.529Z,8.02
2017-10-01T11:15:50.650Z,8.35
2017-10-01T11:18:20.471Z,7.12
2017-10-01T11:20:50.482Z,8.25
2017-10-01T11:23:26.783Z,9.57
2017-10-01T11:25:55.866Z,9.25
2017-10-01T11:28:25.706Z,8.40
2017-10-01T11:30:54.727Z,7.65
2017-10-01T11:33:23.796Z,7.50
2017-10-01T11:36:23.461Z,11.32
2017-10-01T11:38:53.274Z,9.10
2017-10-01T11:41:23.152Z,7.57
2017-10-01T11:43:52.318Z,12.68
2017-10-01T11:46:21.511Z,6.12
2017-10-01T11:48:50.605Z,7.55
2017-10-01T11:51:20.558Z,11.40
2017-10-01T11:53:49.661Z,12.10
2017-10-01T11:56:19.537Z,6.87
2017-10-01T11:58:48.663Z,6.55
2017-10-01T12:01:18.547Z,8.93
2017-10-01T12:03:47.785Z,8.68
2017-10-01T12:06:16.880Z,9.00
2017-10-01T12:08:46.799Z,7.57
2017-10-01T12:11:16.804Z,7.82
2017-10-01T12:13:45.951Z,5.57
2017-10-01T12:16:16.106Z,6.55
2017-10-01T12:18:45.430Z,7.12
2017-10-01T12:21:14.647Z,8.32
2017-10-01T12:23:44.545Z,7.87
2017-10-01T12:26:14.534Z,4.45
2017-10-01T12:28:44.408Z,7.18
2017-10-01T12:31:13.534Z,6.68
2017-10-01T12:33:42.744Z,9.05
2017-10-01T12:36:11.826Z,7.35
2017-10-01T12:38:40.963Z,6.43
2017-10-01T12:41:10.892Z,10.93
2017-10-01T12:43:39.970Z,6.90
2017-10-01T12:46:09.835Z,9.70
2017-10-01T12:48:39.895Z,9.18
2017-10-01T12:51:10.071Z,5.22
2017-10-01T12:53:39.234Z,4.95
2017-10-01T12:56:08.557Z,4.45
2017-10-01T12:58:38.590Z,4.30
2017-10-01T13:01:08.746Z,6.53
2017-10-01T13:03:38.255Z,5.25
2017-10-01T13:06:08.204Z,3.95
2017-10-01T13:08:38.142Z,3.83
2017-10-01T13:11:07.322Z,3.47
2017-10-01T13:13:37.283Z,2.85
2017-10-01T13:16:07.774Z,2.40
2017-10-01T13:18:37.029Z,4.75
2017-10-01T13:21:07.002Z,3.42
2017-10-01T13:23:36.223Z,2.83
2017-10-01T13:28:49.219Z,3.00
2017-10-01T13:31:18.455Z,4.18
2017-10-01T13:33:47.602Z,4.00
2017-10-01T13:36:16.856Z,3.22
2017-10-01T13:38:46.216Z,2.50
2017-10-01T13:41:16.273Z,2.75
2017-10-01T13:43:45.496Z,3.67
2017-10-01T13:46:15.367Z,3.10
2017-10-01T13:48:44.562Z,4.68
2017-10-01T13:51:14.493Z,6.05
2017-10-01T13:53:43.693Z,3.42
2017-10-01T13:56:13.846Z,2.87
2017-10-01T13:58:43.836Z,4.40
2017-10-01T14:01:14.150Z,2.62
2017-10-01T14:03:43.337Z,2.45
2017-10-01T14:06:12.463Z,3.90
2017-10-01T14:08:41.563Z,3.33
2017-10-01T14:11:11.515Z,3.05
2017-10-01T14:13:40.664Z,3.08
2017-10-01T14:16:10.065Z,2.37
2017-10-01T14:18:39.262Z,2.60
2017-10-01T14:21:08.792Z,3.62
2017-10-01T14:23:38.800Z,4.68
2017-10-01T14:26:07.932Z,3.28
2017-10-01T14:28:37.114Z,3.80
2017-10-01T14:31:10.477Z,7.05
2017-10-01T14:33:39.577Z,3.10
2017-10-01T14:36:09.588Z,3.30
2017-10-01T14:38:38.819Z,4.45
2017-10-01T14:41:08.970Z,5.90
2017-10-01T14:43:38.122Z,3.80
2017-10-01T14:46:08.066Z,4.80
2017-10-01T14:48:37.297Z,4.87
2017-10-01T14:51:06.583Z,7.05
2017-10-01T14:53:35.796Z,4.32
2017-10-01T14:56:05.515Z,3.92
2017-10-01T14:58:34.694Z,5.20
2017-10-01T15:01:03.805Z,4.57
2017-10-01T15:03:32.927Z,6.82
2017-10-01T15:06:02.062Z,5.90
2017-10-01T15:11:30.518Z,7.18
2017-10-01T15:13:59.715Z,6.03
2017-10-01T15:16:29.011Z,6.65
2017-10-01T15:18:59.769Z,7.45
2017-10-01T15:21:29.736Z,7.53
2017-10-01T15:23:58.881Z,5.03
2017-10-01T15:26:28.956Z,5.53
2017-10-01T15:28:58.128Z,8.85
2017-10-01T15:31:27.327Z,6.93
2017-10-01T15:33:56.718Z,5.35
2017-10-01T15:36:25.988Z,3.05
2017-10-01T15:38:55.915Z,10.63
2017-10-01T15:41:26.824Z,4.68
2017-10-01T15:43:56.049Z,7.20
2017-10-01T15:46:25.927Z,4.85
2017-10-01T15:48:55.360Z,4.30
2017-10-01T15:51:25.284Z,7.40
2017-10-01T15:55:14.645Z,10.85
2017-10-01T15:57:44.055Z,9.98
2017-10-01T16:00:13.206Z,7.37
2017-10-01T16:02:42.436Z,6.10
2017-10-01T16:05:11.616Z,4.03
2017-10-01T16:07:40.742Z,5.87
2017-10-01T16:10:10.646Z,5.07
2017-10-01T16:12:39.860Z,3.62
2017-10-01T16:15:09.828Z,8.18
2017-10-01T16:17:39.074Z,5.82
2017-10-01T16:20:09.072Z,4.97
2017-10-01T16:22:39.183Z,7.65
2017-10-01T16:25:10.503Z,4.93
2017-10-01T16:27:39.694Z,6.22
2017-10-01T16:30:08.905Z,8.93
2017-10-01T16:32:38.032Z,7.72
2017-10-01T16:35:08.104Z,3.95
2017-10-01T16:37:37.259Z,6.12
2017-10-01T16:40:07.394Z,5.97
2017-10-01T16:42:36.941Z,3.08
2017-10-01T16:45:07.674Z,5.43
2017-10-01T16:47:36.732Z,4.30
2017-10-01T16:50:06.815Z,5.62
2017-10-01T16:52:36.205Z,6.68
2017-10-01T16:55:06.743Z,5.35
2017-10-01T16:57:43.487Z,9.40
2017-10-01T17:00:12.654Z,5.00
2017-10-01T17:02:42.614Z,4.57
2017-10-01T17:05:12.765Z,5.72
2017-10-01T17:07:42.757Z,5.30
2017-10-01T17:10:12.607Z,4.18
2017-10-01T17:12:42.517Z,7.60
2017-10-01T17:16:31.723Z,7.00
2017-10-01T17:19:01.544Z,5.45
2017-10-01T17:21:30.673Z,5.25
2017-10-01T17:23:59.793Z,6.60
2017-10-01T17:26:30.631Z,7.87
2017-10-01T17:29:00.488Z,7.10
2017-10-01T17:31:29.612Z,9.45
2017-10-01T17:33:59.015Z,6.12
2017-10-01T17:36:29.537Z,7.85
2017-10-01T17:38:58.834Z,5.28
2017-10-01T17:41:27.929Z,6.47
2017-10-01T17:43:57.276Z,6.37
2017-10-01T17:46:28.203Z,7.97
2017-10-01T17:48:58.159Z,4.35
2017-10-01T17:51:27.264Z,5.03
2017-10-01T17:53:56.747Z,5.50
2017-10-01T17:56:25.895Z,7.55
2017-10-01T17:58:55.074Z,4.97
2017-10-01T18:01:24.278Z,7.12
2017-10-01T18:03:53.555Z,12.27
2017-10-01T18:06:22.862Z,5.43
2017-10-01T18:08:52.028Z,8.20
2017-10-01T18:11:21.961Z,9.10
2017-10-01T18:13:51.132Z,10.30
2017-10-01T18:16:21.034Z,5.75
2017-10-01T18:18:50.916Z,7.15
2017-10-01T18:21:50.982Z,8.13
2017-10-01T18:24:20.910Z,13.00
2017-10-01T18:26:50.126Z,6.70
2017-10-01T18:29:19.336Z,9.75
2017-10-01T18:31:48.475Z,6.20
2017-10-01T18:34:18.584Z,9.80
2017-10-01T18:36:48.696Z,8.27
2017-10-01T18:39:18.700Z,8.23
2017-10-01T18:41:47.898Z,8.48
2017-10-01T18:44:17.090Z,10.18
2017-10-01T18:46:47.138Z,6.62
2017-10-01T18:49:17.486Z,11.75
2017-10-01T18:51:46.639Z,10.95
2017-10-01T18:54:16.068Z,6.72
2017-10-01T18:56:46.194Z,6.80
2017-10-01T18:59:16.266Z,5.03
2017-10-01T19:01:47.197Z,7.68
2017-10-01T19:04:16.604Z,12.57
2017-10-01T19:06:45.746Z,7.30
2017-10-01T19:09:15.814Z,8.23
2017-10-01T19:11:45.629Z,7.97
2017-10-01T19:14:14.722Z,8.05
2017-10-01T19:16:43.943Z,9.10
2017-10-01T19:19:13.091Z,9.30
2017-10-01T19:21:42.266Z,8.57
2017-10-01T19:24:12.168Z,10.20
2017-10-01T19:26:42.051Z,8.80
2017-10-01T19:29:11.239Z,6.70
2017-10-01T19:31:40.354Z,13.18
2017-10-01T19:34:09.435Z,12.80
2017-10-01T19:36:38.595Z,6.50
2017-10-01T19:39:08.512Z,8.75
2017-10-01T19:41:37.597Z,5.85
2017-10-01T19:44:06.657Z,11.32
2017-10-01T19:46:35.727Z,9.40
2017-10-01T19:49:04.863Z,6.03
2017-10-01T19:51:34.824Z,8.88
2017-10-01T19:54:03.982Z,7.62
2017-10-01T19:56:33.857Z,7.85
2017-10-01T19:59:03.106Z,8.50
2017-10-01T20:01:32.291Z,5.93
2017-10-01T20:04:02.187Z,9.77
2017-10-01T20:06:31.406Z,6.60
2017-10-01T20:09:01.416Z,6.90
2017-10-01T20:11:31.243Z,8.95
2017-10-01T20:14:03.195Z,8.75
2017-10-01T20:16:33.019Z,7.35
2017-10-01T20:19:02.096Z,8.52
2017-10-01T20:21:31.907Z,11.68
2017-10-01T20:24:01.703Z,6.40
2017-10-01T20:26:30.851Z,8.05
2017-10-01T20:28:59.930Z,8.40
2017-10-01T20:31:28.997Z,6.75
2017-10-01T20:33:58.209Z,8.63
2017-10-01T20:36:28.217Z,7.93
2017-10-01T20:38:58.620Z,9.77
2017-10-01T20:41:28.804Z,5.70
2017-10-01T20:43:57.867Z,5.75
2017-10-01T20:46:27.767Z,8.27
2017-10-01T20:48:57.690Z,8.50
2017-10-01T20:51:27.475Z,8.05
2017-10-01T20:53:56.532Z,7.32
2017-10-01T20:56:25.641Z,7.20
2017-10-01T20:58:54.912Z,8.02
2017-10-01T21:01:24.056Z,7.55
2017-10-01T21:03:54.031Z,4.97
2017-10-01T21:06:23.501Z,5.68
2017-10-01T21:08:53.422Z,6.10
2017-10-01T21:11:23.416Z,4.97
2017-10-01T21:13:52.507Z,3.80
2017-10-01T21:16:21.549Z,5.35
2017-10-01T21:18:50.654Z,4.40
2017-10-01T21:21:19.691Z,4.05
2017-10-01T21:23:48.770Z,3.67
2017-10-01T21:26:17.862Z,7.15
2017-10-01T21:28:46.982Z,4.72
2017-10-01T21:31:16.018Z,5.80
2017-10-01T21:33:45.048Z,7.10
2017-10-01T21:36:14.055Z,4.70
2017-10-01T21:38:43.076Z,6.65
2017-10-01T21:41:12.955Z,7.00
2017-10-01T21:43:43.089Z,5.62
2017-10-01T21:46:12.153Z,7.22
2017-10-01T21:48:41.306Z,5.97
2017-10-01T21:51:11.163Z,6.82
2017-10-01T21:53:40.283Z,7.57
2017-10-01T21:57:28.661Z,5.35
2017-10-01T21:59:58.574Z,6.90
2017-10-01T22:02:27.682Z,5.28
2017-10-01T22:04:56.792Z,5.72
2017-10-01T22:07:25.904Z,6.80
2017-10-01T22:09:55.732Z,9.50
2017-10-01T22:12:24.725Z,5.72
2017-10-01T22:14:53.814Z,7.85
2017-10-01T22:17:22.923Z,6.65
2017-10-01T22:19:52.071Z,7.18
2017-10-01T22:22:21.821Z,5.05
2017-10-01T22:24:50.878Z,10.82
2017-10-01T22:27:20.779Z,8.30
2017-10-01T22:29:50.769Z,6.47
2017-10-01T22:32:19.889Z,8.32
2017-10-01T22:34:49.773Z,6.20
2017-10-01T22:37:18.844Z,5.78
2017-10-01T22:39:47.823Z,6.10
2017-10-01T22:42:16.885Z,9.02
2017-10-01T22:44:46.730Z,6.18
2017-10-01T22:47:15.711Z,6.00
2017-10-01T22:49:45.547Z,6.05
2017-10-01T22:52:14.539Z,6.97
2017-10-01T22:54:43.505Z,6.37
2017-10-01T22:57:12.629Z,5.28
2017-10-01T22:59:41.657Z,5.22
2017-10-01T23:02:10.655Z,7.50
2017-10-01T23:05:58.932Z,4.47
2017-10-01T23:08:28.766Z,7.12
2017-10-01T23:10:57.823Z,5.70
2017-10-01T23:13:27.668Z,5.10
2017-10-01T23:15:56.714Z,4.90
2017-10-01T23:18:25.717Z,9.02
2017-10-01T23:20:54.758Z,6.47
2017-10-01T23:23:23.790Z,7.00
2017-10-01T23:27:12.178Z,9.52
2017-10-01T23:29:42.073Z,5.97
2017-10-01T23:32:11.034Z,6.15
2017-10-01T23:34:40.042Z,7.50
2017-10-01T23:37:09.013Z,5.45
2017-10-01T23:39:38.077Z,6.00
2017-10-01T23:42:07.112Z,5.25
2017-10-01T23:44:36.070Z,5.00
2017-10-01T23:47:05.072Z,4.82
2017-10-01T23:49:34.132Z,4.07
2017-10-01T23:52:03.914Z,4.53
2017-10-01T23:54:33.101Z,6.20
2017-10-01T23:57:02.117Z,7.78
2017-10-01T23:59:31.163Z,8.88
